CGNBR EGFF-EGBJ
Flight info
| Callsign | CGNBR |
|---|---|
| Flight time | 0h 17m |
| Altitude | 2500 |
| Route | DIRECT |
| Aircraft | BE58/L-V/N |
Departure
| Time | 2026-05-04 02:08 |
|---|---|
| Airport | Cardiff International Airport (EGFF) |
Arrival
| Time | 2026-05-04 02:25 |
|---|---|
| Airport | Gloucestershire Airport (EGBJ) |
| Time | Latitude | Longitude | Altitude | Speed | Heading |
|---|---|---|---|---|---|
| 2026-05-04 02:06 | 51.40022 | -3.35472 | 121 ft | 0 kts | 116° |
| 2026-05-04 02:07 | 51.40003 | -3.35394 | 214 ft | 41 kts | 108° |
| 2026-05-04 02:07 | 51.39767 | -3.34532 | 258 ft | 116 kts | 116° |
| 2026-05-04 02:07 | 51.39726 | -3.33106 | 446 ft | 147 kts | 57° |
| 2026-05-04 02:07 | 51.40556 | -3.32081 | 775 ft | 158 kts | 34° |
| 2026-05-04 02:08 | 51.41307 | -3.30638 | 862 ft | 180 kts | 56° |
| 2026-05-04 02:08 | 51.42012 | -3.28909 | 981 ft | 190 kts | 55° |
| 2026-05-04 02:08 | 51.42764 | -3.27125 | 1096 ft | 196 kts | 54° |
| 2026-05-04 02:08 | 51.43539 | -3.25304 | 1205 ft | 199 kts | 54° |
| 2026-05-04 02:09 | 51.44311 | -3.23491 | 1314 ft | 201 kts | 54° |
| 2026-05-04 02:09 | 51.45101 | -3.21643 | 1419 ft | 201 kts | 54° |
| 2026-05-04 02:09 | 51.45894 | -3.19786 | 1522 ft | 202 kts | 54° |
| 2026-05-04 02:09 | 51.46687 | -3.17922 | 1625 ft | 203 kts | 55° |
| 2026-05-04 02:10 | 51.47482 | -3.16050 | 1726 ft | 203 kts | 55° |
| 2026-05-04 02:10 | 51.48278 | -3.14175 | 1826 ft | 203 kts | 55° |
| 2026-05-04 02:10 | 51.49075 | -3.12301 | 1926 ft | 203 kts | 55° |
| 2026-05-04 02:10 | 51.49871 | -3.10428 | 1994 ft | 205 kts | 55° |
| 2026-05-04 02:11 | 51.50670 | -3.08550 | 1997 ft | 208 kts | 55° |
| 2026-05-04 02:11 | 51.51490 | -3.06620 | 2002 ft | 210 kts | 55° |
| 2026-05-04 02:11 | 51.52317 | -3.04670 | 2004 ft | 212 kts | 55° |
| 2026-05-04 02:11 | 51.53151 | -3.02709 | 2007 ft | 213 kts | 55° |
| 2026-05-04 02:12 | 51.53987 | -3.00743 | 2007 ft | 213 kts | 55° |
| 2026-05-04 02:12 | 51.54822 | -2.98774 | 2009 ft | 213 kts | 55° |
| 2026-05-04 02:12 | 51.55659 | -2.96801 | 2008 ft | 214 kts | 55° |
| 2026-05-04 02:12 | 51.56499 | -2.94827 | 2008 ft | 214 kts | 55° |
| 2026-05-04 02:13 | 51.57334 | -2.92854 | 2006 ft | 213 kts | 55° |
| 2026-05-04 02:13 | 51.58156 | -2.90912 | 2010 ft | 213 kts | 55° |
| 2026-05-04 02:13 | 51.58990 | -2.88942 | 2007 ft | 213 kts | 55° |
| 2026-05-04 02:13 | 51.59821 | -2.86981 | 2007 ft | 212 kts | 55° |
| 2026-05-04 02:14 | 51.60651 | -2.85019 | 2007 ft | 213 kts | 55° |
| 2026-05-04 02:14 | 51.61479 | -2.83064 | 2008 ft | 213 kts | 55° |
| 2026-05-04 02:14 | 51.62312 | -2.81096 | 2006 ft | 213 kts | 55° |
| 2026-05-04 02:14 | 51.63145 | -2.79125 | 2006 ft | 213 kts | 55° |
| 2026-05-04 02:15 | 51.63967 | -2.77178 | 2009 ft | 213 kts | 55° |
| 2026-05-04 02:15 | 51.64798 | -2.75208 | 2007 ft | 213 kts | 55° |
| 2026-05-04 02:15 | 51.65631 | -2.73237 | 2008 ft | 213 kts | 55° |
| 2026-05-04 02:15 | 51.66466 | -2.71263 | 2007 ft | 213 kts | 55° |
| 2026-05-04 02:16 | 51.67299 | -2.69286 | 2009 ft | 213 kts | 55° |
| 2026-05-04 02:16 | 51.68133 | -2.67307 | 2006 ft | 214 kts | 55° |
| 2026-05-04 02:16 | 51.68967 | -2.65327 | 2008 ft | 214 kts | 55° |
| 2026-05-04 02:16 | 51.69802 | -2.63347 | 2009 ft | 214 kts | 55° |
| 2026-05-04 02:17 | 51.70637 | -2.61366 | 2008 ft | 213 kts | 55° |
| 2026-05-04 02:17 | 51.71430 | -2.59478 | 2008 ft | 214 kts | 55° |
| 2026-05-04 02:17 | 51.72266 | -2.57489 | 2009 ft | 214 kts | 55° |
| 2026-05-04 02:17 | 51.73104 | -2.55499 | 2006 ft | 215 kts | 55° |
| 2026-05-04 02:18 | 51.73943 | -2.53506 | 2005 ft | 214 kts | 55° |
| 2026-05-04 02:18 | 51.74779 | -2.51518 | 2008 ft | 214 kts | 55° |
| 2026-05-04 02:18 | 51.75617 | -2.49524 | 2009 ft | 215 kts | 55° |
| 2026-05-04 02:18 | 51.76454 | -2.47527 | 2007 ft | 215 kts | 55° |
| 2026-05-04 02:19 | 51.77266 | -2.45591 | 2008 ft | 215 kts | 55° |
| 2026-05-04 02:19 | 51.78093 | -2.43625 | 2008 ft | 214 kts | 55° |
| 2026-05-04 02:19 | 51.78928 | -2.41637 | 2007 ft | 214 kts | 55° |
| 2026-05-04 02:19 | 51.79762 | -2.39647 | 2005 ft | 213 kts | 55° |
| 2026-05-04 02:20 | 51.80555 | -2.37752 | 2005 ft | 213 kts | 55° |
| 2026-05-04 02:20 | 51.81409 | -2.35714 | 2005 ft | 213 kts | 55° |
| 2026-05-04 02:20 | 51.82240 | -2.33734 | 2005 ft | 213 kts | 55° |
| 2026-05-04 02:20 | 51.83070 | -2.31755 | 2004 ft | 213 kts | 55° |
| 2026-05-04 02:21 | 51.83899 | -2.29777 | 2004 ft | 213 kts | 55° |
| 2026-05-04 02:21 | 51.84716 | -2.27823 | 2004 ft | 213 kts | 55° |
| 2026-05-04 02:21 | 51.85544 | -2.25841 | 2003 ft | 213 kts | 55° |
| 2026-05-04 02:21 | 51.86373 | -2.23860 | 2004 ft | 212 kts | 55° |
| 2026-05-04 02:22 | 51.87197 | -2.21890 | 2004 ft | 213 kts | 55° |
| 2026-05-04 02:22 | 51.88025 | -2.19907 | 2004 ft | 213 kts | 55° |
| 2026-05-04 02:22 | 51.88853 | -2.17924 | 2005 ft | 213 kts | 55° |
| 2026-05-04 02:22 | 51.89681 | -2.15936 | 2004 ft | 213 kts | 55° |
| 2026-05-04 02:23 | 51.90511 | -2.13949 | 2003 ft | 213 kts | 55° |
| 2026-05-04 02:23 | 51.91337 | -2.11964 | 2002 ft | 213 kts | 55° |
| 2026-05-04 02:23 | 51.92136 | -2.10047 | 2002 ft | 212 kts | 47° |
| 2026-05-04 02:23 | 51.92340 | -2.11167 | 1692 ft | 200 kts | 233° |
| 2026-05-04 02:24 | 51.91536 | -2.12571 | 2865 ft | 114 kts | 224° |
| 2026-05-04 02:24 | 51.90888 | -2.13621 | 3231 ft | 144 kts | 229° |
| 2026-05-04 02:24 | 51.90206 | -2.15037 | 3409 ft | 153 kts | 240° |
| 2026-05-04 02:24 | 51.89747 | -2.16837 | 983 ft | 202 kts | 258° |
| 2026-05-04 02:25 | 51.89647 | -2.18222 | 1189 ft | 104 kts | 241° |
| 2026-05-04 02:25 | 51.89129 | -2.19220 | 372 ft | 108 kts | 224° |
| 2026-05-04 02:25 | 51.88772 | -2.19527 | 335 ft | 0 kts | 168° |
| 2026-05-04 02:25 | 51.89295 | -2.19272 | 308 ft | 130 kts | 61° |
| 2026-05-04 02:26 | 51.89347 | -2.17978 | 125 ft | 111 kts | 84° |
| 2026-05-04 02:26 | 51.89408 | -2.16949 | 93 ft | 54 kts | 87° |
| 2026-05-04 02:26 | 51.89417 | -2.16611 | 93 ft | 42 kts | 92° |
| 2026-05-04 02:26 | 51.89446 | -2.16070 | 89 ft | 37 kts | 82° |
| 2026-05-04 02:27 | 51.89416 | -2.15871 | 93 ft | 11 kts | 133° |
| 2026-05-04 02:27 | 51.89359 | -2.15835 | 93 ft | 14 kts | 178° |
| 2026-05-04 02:27 | 51.89250 | -2.15820 | 95 ft | 14 kts | 164° |
| 2026-05-04 02:27 | 51.89181 | -2.15831 | 96 ft | 8 kts | 224° |
| 2026-05-04 02:28 | 51.89180 | -2.15834 | 96 ft | 0 kts | 224° |